Time;durP1;ratioP1;P1;durP2;ratioP2;P2;SDS_P1;SDS_P2;PMS_P1;PMS_P2;Temp;Humidity;BMP_temperature;BMP_pressure;BME280_temperature;BME280_humidity;BME280_pressure;Samples;Min_cycle;Max_cycle;Signal;HPM_P1;HPM_P2
2023/01/30 00:00:18;;;;;;;31.05;20.10;;;;;;;3.70;68.95;102010.25;4906046;29;20506;-81
2023/01/30 00:02:45;;;;;;;32.83;19.90;;;;;;;3.69;69.67;102006.78;4918015;29;20235;-80
2023/01/30 00:05:14;;;;;;;32.13;20.23;;;;;;;3.56;69.92;101981.88;4910534;29;20110;-81
2023/01/30 00:15:13;;;;;;;36.45;19.52;;;;;;;3.38;70.42;101959.81;4864716;29;20124;-80
2023/01/30 00:17:43;;;;;;;33.60;19.75;;;;;;;3.26;70.12;101931.41;4823855;29;20057;-80
2023/01/30 00:20:13;;;;;;;30.23;20.27;;;;;;;3.48;69.75;101979.56;4817170;29;20668;-83
2023/01/30 00:22:46;;;;;;;27.35;18.25;;;;;;;3.01;69.40;101900.81;4908079;29;20086;-82
2023/01/30 00:25:33;;;;;;;31.05;19.20;;;;;;;3.48;69.33;101981.31;4909620;29;20055;-81
2023/01/30 00:28:28;;;;;;;34.65;18.42;;;;;;;3.47;68.90;101975.22;4871472;29;20058;-80
2023/01/30 00:30:55;;;;;;;;;;;;;;;3.44;68.91;101970.06;4913347;28;20057;-83
2023/01/30 00:33:25;;;;;;;28.85;17.25;;;;;;;3.47;68.79;101971.72;4919036;28;19922;-79
2023/01/30 00:36:09;;;;;;;28.85;17.67;;;;;;;3.46;69.68;101968.25;4895005;29;20700;-80
2023/01/30 00:38:55;;;;;;;32.25;18.15;;;;;;;3.48;69.52;101969.03;4879735;29;20496;-80
2023/01/30 00:47:27;;;;;;;33.13;17.77;;;;;;;3.26;68.46;101931.41;4888140;29;20509;-82
2023/01/30 00:49:57;;;;;;;27.60;18.67;;;;;;;3.51;68.78;101968.94;4896046;29;20052;-82
2023/01/30 00:52:27;;;;;;;30.38;17.38;;;;;;;3.23;68.76;101916.63;4901511;29;20118;-83
2023/01/30 00:54:54;;;;;;;30.63;17.08;;;;;;;3.56;67.55;101969.59;4902158;29;20288;-82
2023/01/30 00:57:21;;;;;;;33.70;16.98;;;;;;;3.56;67.33;101964.34;4898237;29;20405;-81
2023/01/30 00:59:47;;;;;;;31.90;17.60;;;;;;;3.52;66.87;101947.03;4883145;29;20389;-80
2023/01/30 01:02:16;;;;;;;34.88;17.10;;;;;;;3.44;66.55;101920.19;4900883;29;20066;-83
2023/01/30 01:04:46;;;;;;;38.85;18.13;;;;;;;3.72;66.22;101956.75;4898940;29;20530;-83
2023/01/30 01:07:13;;;;;;;33.92;17.70;;;;;;;3.32;66.50;101894.41;4914695;28;20054;-82
2023/01/30 01:09:43;;;;;;;34.22;17.73;;;;;;;3.51;67.09;101931.31;4902731;28;20051;-81
2023/01/30 01:12:10;;;;;;;28.67;17.95;;;;;;;3.54;67.76;101936.44;4892451;29;20498;-83
2023/01/30 01:14:38;;;;;;;30.02;17.65;;;;;;;3.34;67.17;101905.69;4908003;29;20176;-82
2023/01/30 01:17:09;;;;;;;28.58;17.60;;;;;;;3.39;67.07;101912.47;4903157;29;20459;-83
2023/01/30 01:19:38;;;;;;;27.70;16.55;;;;;;;3.46;67.60;101920.97;4901290;29;20082;-82
2023/01/30 01:22:05;;;;;;;29.25;17.75;;;;;;;3.56;66.70;101929.38;4930893;29;20569;-82
2023/01/30 01:24:36;;;;;;;28.27;17.30;;;;;;;3.56;66.79;101929.38;4878690;29;20118;-81
2023/01/30 01:27:12;;;;;;;28.05;17.10;;;;;;;3.44;66.63;101907.06;4901793;29;20091;-80
2023/01/30 01:29:44;;;;;;;27.45;17.15;;;;;;;3.19;66.89;101868.63;4906914;29;20114;-83
2023/01/30 01:32:22;;;;;;;28.50;18.10;;;;;;;3.56;66.09;101934.63;4909580;28;20330;-82
2023/01/30 01:34:58;;;;;;;28.70;18.17;;;;;;;3.61;66.54;101928.25;4900161;29;20055;-82
2023/01/30 01:37:29;;;;;;;27.83;18.67;;;;;;;3.56;66.29;101919.72;4902793;28;20086;-83
2023/01/30 01:42:45;;;;;;;27.40;17.33;;;;;;;3.63;66.00;101913.31;4939254;28;20682;-80
2023/01/30 01:45:28;;;;;;;24.58;16.52;;;;;;;3.58;66.00;101906.53;4915349;28;20282;-80
2023/01/30 01:48:10;;;;;;;29.77;17.55;;;;;;;3.53;65.87;101893.59;4911771;28;20589;-82
2023/01/30 01:50:55;;;;;;;25.13;15.98;;;;;;;3.53;65.57;101893.59;4924267;28;20058;-82
2023/01/30 01:53:35;;;;;;;22.75;15.65;;;;;;;3.61;66.06;101909.03;4908715;28;20061;-84
2023/01/30 01:56:04;;;;;;;27.38;18.02;;;;;;;3.27;65.84;101844.69;4893702;28;20055;-81
2023/01/30 01:58:41;;;;;;;25.98;17.13;;;;;;;3.29;66.11;101852.53;4909426;29;20496;-82
2023/01/30 02:01:08;;;;;;;25.45;17.35;;;;;;;3.00;66.13;101808.09;4924248;29;20224;-84
2023/01/30 02:03:46;;;;;;;25.65;17.10;;;;;;;3.31;66.72;101863.81;4884428;28;20499;-83
2023/01/30 02:06:16;;;;;;;26.33;16.63;;;;;;;3.21;66.29;101855.44;4897741;29;20052;-83
2023/01/30 02:08:51;;;;;;;28.70;17.48;;;;;;;3.49;66.29;101888.50;4896083;29;20058;-82
2023/01/30 02:11:36;;;;;;;30.15;18.15;;;;;;;2.64;65.33;101744.78;4897264;29;20056;-83
2023/01/30 02:14:03;;;;;;;24.60;16.35;;;;;;;3.39;65.92;101872.25;4874133;29;20135;-83
2023/01/30 02:16:38;;;;;;;25.05;16.95;;;;;;;3.36;65.81;101867.97;4877616;29;20071;-82
2023/01/30 02:19:30;;;;;;;30.58;16.60;;;;;;;3.34;66.14;101864.56;4863574;29;20360;-81
2023/01/30 02:22:38;;;;;;;23.05;15.30;;;;;;;3.47;65.21;101888.59;4883354;29;20055;-83
2023/01/30 02:25:53;;;;;;;24.95;15.30;;;;;;;3.45;65.81;101881.66;4876950;29;20135;-82
2023/01/30 02:28:41;;;;;;;25.38;16.90;;;;;;;3.50;65.03;101877.09;4872792;29;20048;-84
2023/01/30 02:31:31;;;;;;;25.02;15.10;;;;;;;3.52;65.52;101876.13;4894483;29;20083;-83
2023/01/30 02:34:16;;;;;;;23.65;16.42;;;;;;;3.15;65.28;101798.78;4894872;28;20121;-82
2023/01/30 02:37:01;;;;;;;27.65;16.77;;;;;;;3.47;65.77;101862.31;4914969;29;20631;-83
2023/01/30 02:39:40;;;;;;;25.25;17.20;;;;;;;2.58;65.76;101697.00;4886804;29;20055;-83
2023/01/30 02:42:27;;;;;;;25.73;16.13;;;;;;;3.53;65.60;101862.06;4919298;29;20317;-83
2023/01/30 02:45:09;;;;;;;24.40;15.32;;;;;;;3.05;65.65;101783.47;4901115;29;20063;-80
2023/01/30 02:47:46;;;;;;;25.98;17.42;;;;;;;3.41;66.06;101846.81;4899982;29;20176;-80
2023/01/30 02:50:21;;;;;;;27.60;16.95;;;;;;;3.05;66.29;101802.69;4889824;29;20291;-83
2023/01/30 02:53:15;;;;;;;21.98;15.95;;;;;;;3.35;66.50;101840.03;4891085;29;20055;-83
2023/01/30 02:55:42;;;;;;;26.58;16.83;;;;;;;2.99;66.12;101774.94;4916492;29;20106;-83
2023/01/30 02:58:36;;;;;;;25.02;17.08;;;;;;;3.39;66.69;101851.25;4891586;29;20055;-82
2023/01/30 03:01:27;;;;;;;25.77;16.15;;;;;;;3.35;66.89;101842.66;4882720;29;20175;-83
2023/01/30 03:04:17;;;;;;;24.20;16.00;;;;;;;3.17;66.89;101828.44;4913052;28;20674;-81
2023/01/30 03:07:08;;;;;;;20.35;15.75;;;;;;;3.23;66.32;101840.50;4878443;29;20415;-82
2023/01/30 03:10:16;;;;;;;20.85;15.18;;;;;;;3.20;67.05;101844.09;4873401;29;20398;-82
2023/01/30 03:13:00;;;;;;;23.45;15.70;;;;;;;3.11;66.67;101833.97;4833800;29;20574;-82
2023/01/30 03:15:39;;;;;;;23.80;14.93;;;;;;;3.04;67.20;101818.50;4889997;29;20317;-83
2023/01/30 03:18:06;;;;;;;24.02;16.75;;;;;;;2.96;66.54;101800.41;4875387;29;20059;-83
2023/01/30 03:20:42;;;;;;;22.50;15.55;;;;;;;2.82;66.75;101774.72;4877812;29;20224;-80
2023/01/30 03:23:16;;;;;;;24.67;16.05;;;;;;;3.19;66.56;101831.88;4903543;29;20140;-82
2023/01/30 03:25:47;;;;;;;23.70;15.18;;;;;;;2.58;66.63;101726.69;4873454;28;20059;-81
2023/01/30 03:28:19;;;;;;;22.85;15.43;;;;;;;2.75;66.74;101752.25;4910259;29;20051;-83
2023/01/30 03:30:46;;;;;;;24.25;15.55;;;;;;;3.01;66.38;101809.00;4917248;29;20051;-81
2023/01/30 03:33:20;;;;;;;24.63;16.20;;;;;;;3.07;66.35;101816.59;4928479;28;20043;-82
2023/01/30 03:35:51;;;;;;;24.40;15.93;;;;;;;2.98;66.32;101796.81;4902249;29;20517;-81
2023/01/30 03:38:23;;;;;;;22.73;15.50;;;;;;;2.65;66.43;101738.66;4877503;29;20306;-80
2023/01/30 03:40:49;;;;;;;24.70;15.88;;;;;;;2.84;66.70;101772.91;4876959;29;20541;-80
2023/01/30 03:43:16;;;;;;;26.95;15.43;;;;;;;2.94;66.65;101790.00;4903156;29;20137;-80
2023/01/30 03:45:46;;;;;;;28.17;15.10;;;;;;;3.00;66.17;101815.97;4900260;29;20404;-82
2023/01/30 03:48:16;;;;;;;23.33;15.27;;;;;;;2.97;66.89;101818.72;4902166;29;20716;-79
2023/01/30 03:50:43;;;;;;;23.65;14.82;;;;;;;3.07;67.08;101821.00;4899498;29;20577;-83
2023/01/30 03:53:15;;;;;;;23.20;15.45;;;;;;;2.81;66.59;101774.78;4925090;29;20087;-81
2023/01/30 03:55:45;;;;;;;25.75;14.52;;;;;;;2.76;66.61;101764.44;4910510;29;20402;-80
2023/01/30 03:58:14;;;;;;;22.15;15.32;;;;;;;3.04;66.18;101823.75;4898780;29;20074;-81
2023/01/30 04:00:44;;;;;;;24.15;14.32;;;;;;;3.05;66.23;101823.69;4896093;29;20387;-82
2023/01/30 04:03:11;;;;;;;20.88;14.88;;;;;;;3.01;66.17;101811.59;4882567;29;20094;-82
2023/01/30 04:05:58;;;;;;;20.70;14.27;;;;;;;2.97;66.76;101810.00;4912798;28;20054;-81
2023/01/30 04:08:25;;;;;;;22.13;14.90;;;;;;;3.03;66.69;101824.66;4897428;29;20043;-79
2023/01/30 04:10:52;;;;;;;18.58;13.77;;;;;;;2.94;66.83;101803.09;4870939;29;20074;-81
2023/01/30 04:13:21;;;;;;;20.08;14.00;;;;;;;2.89;67.09;101799.81;4884722;29;20055;-81
2023/01/30 04:16:29;;;;;;;20.73;14.82;;;;;;;2.83;66.76;101783.44;4885367;29;20102;-81
2023/01/30 04:18:55;;;;;;;24.57;15.53;;;;;;;2.87;66.75;101792.91;4899209;29;20509;-80
2023/01/30 04:21:43;;;;;;;24.63;15.03;;;;;;;2.91;67.00;101799.72;4900392;29;20123;-79
2023/01/30 04:24:09;;;;;;;22.90;14.07;;;;;;;2.87;66.91;101799.00;4869563;29;20055;-80
2023/01/30 04:26:45;;;;;;;23.48;15.25;;;;;;;2.89;65.89;101793.69;4899187;29;20151;-81
2023/01/30 04:29:28;;;;;;;20.63;14.82;;;;;;;2.89;66.64;101796.31;4887032;29;20262;-81
2023/01/30 04:31:55;;;;;;;23.57;13.97;;;;;;;2.75;66.41;101774.09;4877012;29;20083;-82
2023/01/30 04:34:26;;;;;;;27.53;16.00;;;;;;;2.73;66.53;101762.81;4882185;29;20055;-80
2023/01/30 04:37:01;;;;;;;18.17;13.23;;;;;;;2.96;66.43;101782.03;4893689;29;20171;-81
2023/01/30 04:39:31;;;;;;;20.47;13.77;;;;;;;2.64;66.14;101729.06;4886033;29;20671;-79
2023/01/30 04:42:03;;;;;;;23.67;14.97;;;;;;;2.96;66.59;101782.03;4890802;29;20051;-83
2023/01/30 04:44:29;;;;;;;22.58;13.88;;;;;;;2.24;66.97;101659.78;4904975;29;20055;-80
2023/01/30 04:46:56;;;;;;;21.05;13.57;;;;;;;2.89;66.94;101767.44;4907192;29;20055;-80
2023/01/30 04:49:22;;;;;;;19.45;13.93;;;;;;;2.71;66.13;101751.50;4893340;29;20062;-80
2023/01/30 04:51:55;;;;;;;28.17;14.27;;;;;;;2.59;65.86;101725.75;4894231;29;20287;-80
2023/01/30 04:54:24;;;;;;;23.57;13.70;;;;;;;2.87;65.93;101769.31;4902563;29;20063;-83
2023/01/30 04:56:53;;;;;;;23.10;13.65;;;;;;;2.31;66.30;101679.63;4907293;29;20051;-83
2023/01/30 04:59:20;;;;;;;19.77;13.30;;;;;;;2.39;65.33;101692.44;4907238;28;20385;-80
2023/01/30 05:01:47;;;;;;;21.80;13.85;;;;;;;2.63;66.41;101743.09;4915321;29;20047;-83
2023/01/30 05:04:19;;;;;;;20.85;13.98;;;;;;;2.86;66.08;101775.44;4921312;28;20062;-81
2023/01/30 05:06:48;;;;;;;22.67;15.52;;;;;;;2.41;66.43;101684.53;4919776;29;20056;-82
2023/01/30 05:09:15;;;;;;;19.65;13.68;;;;;;;2.83;66.58;101749.34;4903579;29;20272;-82
2023/01/30 05:11:43;;;;;;;21.38;12.85;;;;;;;2.51;66.77;101686.72;4909278;29;20058;-82
2023/01/30 05:14:10;;;;;;;19.38;13.05;;;;;;;2.64;66.96;101702.84;4903618;29;20062;-84
2023/01/30 05:17:03;;;;;;;18.40;12.32;;;;;;;2.70;66.64;101707.84;4898598;29;20058;-83
2023/01/30 05:19:33;;;;;;;18.60;13.27;;;;;;;2.82;66.14;101724.03;4908384;29;20051;-82
2023/01/30 05:22:18;;;;;;;21.07;11.77;;;;;;;2.76;66.25;101714.63;4884375;29;20556;-81
2023/01/30 05:24:50;;;;;;;23.47;12.73;;;;;;;2.84;66.64;101720.44;4895122;29;20052;-81
2023/01/30 05:27:25;;;;;;;22.50;13.10;;;;;;;2.80;66.51;101697.03;4930389;28;20048;-81
2023/01/30 05:29:53;;;;;;;19.20;11.93;;;;;;;2.90;65.56;101700.97;4907288;28;20053;-79
2023/01/30 05:32:24;;;;;;;17.50;11.55;;;;;;;2.44;65.41;101613.63;4922289;28;20562;-81
2023/01/30 05:34:59;;;;;;;19.42;13.00;;;;;;;2.25;65.33;101580.25;4905017;29;20055;-81
2023/01/30 05:37:26;;;;;;;18.08;11.05;;;;;;;2.97;64.94;101691.97;4919941;29;20047;-80
2023/01/30 05:39:52;;;;;;;20.27;10.68;;;;;;;3.11;63.85;101701.91;4903346;29;20074;-81
2023/01/30 05:42:24;;;;;;;15.63;10.77;;;;;;;3.14;63.70;101693.91;4890082;29;20051;-82
2023/01/30 05:44:54;;;;;;;17.83;11.33;;;;;;;3.05;63.72;101683.78;4922650;28;20192;-80
2023/01/30 05:47:26;;;;;;;14.63;10.13;;;;;;;3.14;64.29;101692.13;4932230;28;20051;-82
2023/01/30 05:50:04;;;;;;;20.67;11.07;;;;;;;3.24;63.49;101686.50;4902365;29;20321;-81
2023/01/30 05:52:36;;;;;;;17.13;10.93;;;;;;;3.10;63.58;101676.56;4909336;29;20058;-80
2023/01/30 05:55:06;;;;;;;17.93;10.37;;;;;;;3.09;63.67;101688.84;4918180;28;20059;-81
2023/01/30 05:57:36;;;;;;;14.40;9.60;;;;;;;3.05;64.24;101684.63;4902920;28;20723;-81
2023/01/30 06:00:05;;;;;;;13.60;9.90;;;;;;;2.79;64.14;101654.19;4920062;28;20226;-81
2023/01/30 06:02:32;;;;;;;13.80;10.03;;;;;;;2.85;64.57;101667.06;4919779;29;20510;-81
2023/01/30 06:05:03;;;;;;;20.60;10.90;;;;;;;2.99;65.07;101692.75;4908482;29;20102;-80
2023/01/30 06:07:31;;;;;;;19.60;11.15;;;;;;;2.90;64.25;101677.38;4912785;28;20134;-79
2023/01/30 06:09:57;;;;;;;18.10;11.77;;;;;;;2.93;64.21;101704.31;4893992;29;20047;-82
2023/01/30 06:12:30;;;;;;;12.88;9.57;;;;;;;2.75;63.62;101663.94;4858612;29;20043;-80
2023/01/30 06:15:03;;;;;;;15.18;9.35;;;;;;;2.70;62.70;101650.16;4857199;29;20145;-81
2023/01/30 06:17:42;;;;;;;15.02;9.43;;;;;;;2.82;62.75;101661.09;4846587;29;20171;-80
2023/01/30 06:20:16;;;;;;;16.88;9.48;;;;;;;3.08;62.85;101715.13;4868210;29;20354;-81
2023/01/30 06:22:58;;;;;;;16.87;9.60;;;;;;;3.02;62.36;101723.25;4908059;29;20047;-82
2023/01/30 06:25:34;;;;;;;12.93;8.45;;;;;;;3.14;62.92;101747.22;4904940;29;20055;-81
2023/01/30 06:28:02;;;;;;;16.07;10.27;;;;;;;3.08;62.47;101736.13;4920215;29;20119;-81
2023/01/30 06:30:33;;;;;;;20.27;11.52;;;;;;;3.25;62.35;101759.06;4904557;29;20047;-81
2023/01/30 06:33:02;;;;;;;14.85;9.80;;;;;;;3.12;62.63;101746.44;4907360;28;20354;-81
2023/01/30 06:35:33;;;;;;;17.98;10.23;;;;;;;3.24;63.28;101775.75;4903008;29;20047;-83
2023/01/30 06:38:00;;;;;;;18.85;10.57;;;;;;;3.21;63.71;101759.19;4906885;29;20058;-80
2023/01/30 06:40:27;;;;;;;20.77;10.83;;;;;;;3.29;63.41;101763.28;4905685;29;20055;-80
2023/01/30 06:42:56;;;;;;;17.38;10.05;;;;;;;3.22;63.64;101763.53;4881779;29;20138;-81
2023/01/30 06:45:23;;;;;;;21.75;12.23;;;;;;;3.06;64.25;101749.31;4898668;29;20039;-83
2023/01/30 06:47:52;;;;;;;20.65;10.40;;;;;;;2.81;63.24;101714.44;4921938;29;20058;-83
2023/01/30 06:50:22;;;;;;;23.77;11.57;;;;;;;2.34;63.50;101590.41;4882145;29;20584;-83
2023/01/30 06:52:54;;;;;;;20.92;11.15;;;;;;;2.80;63.75;101686.53;4861574;29;20054;-83
2023/01/30 06:55:29;;;;;;;27.10;12.05;;;;;;;2.93;64.61;101740.19;4879108;28;20345;-80
2023/01/30 06:58:03;;;;;;;27.03;11.73;;;;;;;2.77;64.32;101722.44;4901544;28;20347;-80
2023/01/30 07:00:38;;;;;;;15.40;10.67;;;;;;;3.16;64.33;101792.66;4881954;29;20590;-82
2023/01/30 07:03:21;;;;;;;22.77;10.63;;;;;;;2.95;64.43;101772.47;4895124;29;20331;-79
2023/01/30 07:05:48;;;;;;;25.10;10.17;;;;;;;1.96;64.76;101611.94;4909364;29;20055;-81
2023/01/30 07:08:16;;;;;;;22.30;12.20;;;;;;;3.19;64.92;101818.75;4928570;28;20123;-80
2023/01/30 07:10:48;;;;;;;17.80;12.10;;;;;;;2.40;64.69;101680.19;4912044;28;20114;-80
2023/01/30 07:13:22;;;;;;;19.33;12.07;;;;;;;3.09;65.14;101783.31;4928321;28;20074;-80
2023/01/30 07:16:13;;;;;;;19.88;11.20;;;;;;;3.06;63.85;101749.31;4923802;28;20053;-81
2023/01/30 07:18:40;;;;;;;21.52;11.75;;;;;;;3.33;64.40;101788.50;4915401;28;20493;-80
2023/01/30 07:21:07;;;;;;;16.90;11.70;;;;;;;3.33;64.29;101785.88;4922289;28;20496;-80
2023/01/30 07:23:42;;;;;;;18.92;11.50;;;;;;;3.33;63.82;101778.00;4923806;28;20325;-81
2023/01/30 07:26:09;;;;;;;17.58;10.52;;;;;;;3.53;64.29;101788.56;4918793;28;20053;-80
2023/01/30 07:28:38;;;;;;;24.75;11.60;;;;;;;2.94;64.52;101694.72;4888028;28;20047;-78
2023/01/30 07:31:05;;;;;;;15.65;9.63;;;;;;;3.53;63.72;101799.06;4891289;28;20496;-81
2023/01/30 07:33:32;;;;;;;20.95;11.55;;;;;;;3.31;64.85;101756.22;4905303;28;20361;-79
2023/01/30 07:36:01;;;;;;;29.92;12.82;;;;;;;3.59;64.18;101792.69;4897213;29;20063;-79
2023/01/30 07:38:28;;;;;;;28.05;16.52;;;;;;;3.36;63.34;101738.50;4924763;29;20058;-78
2023/01/30 07:41:02;;;;;;;23.85;13.38;;;;;;;3.72;62.42;101787.81;4910216;29;20506;-78
2023/01/30 07:43:45;;;;;;;21.05;12.55;;;;;;;3.76;62.88;101777.13;4908259;29;20376;-78
2023/01/30 07:46:16;;;;;;;25.83;12.30;;;;;;;3.88;63.47;101780.97;4924144;29;20349;-78
2023/01/30 07:48:45;;;;;;;25.83;13.43;;;;;;;3.47;64.23;101704.81;4906365;29;20054;-79
2023/01/30 07:51:12;;;;;;;36.30;15.55;;;;;;;3.93;64.29;101765.91;4906657;29;20571;-77
2023/01/30 07:53:56;;;;;;;34.58;12.73;;;;;;;3.97;63.36;101746.44;4893989;29;20059;-79
2023/01/30 07:56:32;;;;;;;24.17;11.30;;;;;;;4.02;63.17;101738.34;4883527;28;20078;-80
2023/01/30 07:59:01;;;;;;;21.40;12.70;;;;;;;4.14;61.53;101742.22;4914307;29;20094;-78
2023/01/30 08:01:28;;;;;;;17.15;10.82;;;;;;;3.89;60.50;101705.66;4907274;29;20103;-81
2023/01/30 08:04:01;;;;;;;17.67;10.98;;;;;;;4.26;60.88;101765.34;4901678;28;20569;-78
2023/01/30 08:06:35;;;;;;;20.08;11.15;;;;;;;3.91;60.08;101691.53;4891253;29;20494;-78
2023/01/30 08:09:02;;;;;;;17.88;10.75;;;;;;;4.28;59.57;101740.69;4897574;29;20055;-80
2023/01/30 08:11:34;;;;;;;17.05;11.23;;;;;;;4.46;59.31;101765.31;4901339;29;20055;-79
2023/01/30 08:14:01;;;;;;;17.73;10.98;;;;;;;4.34;59.16;101750.09;4821080;29;20565;-78
2023/01/30 08:16:32;;;;;;;18.05;11.23;;;;;;;4.53;59.83;101778.19;4814726;29;20144;-80
2023/01/30 08:18:59;;;;;;;21.30;11.48;;;;;;;4.34;59.41;101736.94;4840790;29;20097;-79
2023/01/30 08:21:32;;;;;;;17.85;11.48;;;;;;;4.63;59.41;101771.59;4806152;29;20069;-79
2023/01/30 08:24:05;;;;;;;18.17;10.27;;;;;;;4.55;59.47;101736.91;4841445;29;20132;-78
2023/01/30 08:26:31;;;;;;;16.00;10.25;;;;;;;4.11;58.71;101626.75;4811338;29;20466;-80
2023/01/30 08:29:00;;;;;;;15.90;11.25;;;;;;;4.95;57.13;101750.84;4838873;29;20096;-80
2023/01/30 08:31:27;;;;;;;16.52;10.98;;;;;;;4.88;57.19;101721.34;4858786;29;20138;-80
2023/01/30 08:33:57;;;;;;;16.17;11.07;;;;;;;4.98;56.70;101730.50;4909883;29;20083;-80
2023/01/30 08:36:25;;;;;;;16.58;10.93;;;;;;;4.61;56.43;101670.84;4894886;29;20330;-80
2023/01/30 08:39:05;;;;;;;14.77;10.10;;;;;;;4.98;56.82;101711.25;4902226;29;20288;-79
2023/01/30 08:41:32;;;;;;;14.52;9.75;;;;;;;4.90;56.71;101695.78;4878925;29;20407;-79
2023/01/30 08:43:59;;;;;;;13.80;9.60;;;;;;;4.74;56.28;101635.16;4893943;29;20067;-79
2023/01/30 08:46:26;;;;;;;16.30;9.55;;;;;;;5.37;56.30;101734.78;4900411;29;20074;-80
2023/01/30 08:49:02;;;;;;;18.73;10.10;;;;;;;5.44;55.69;101727.44;4892399;29;20066;-81
2023/01/30 08:51:32;;;;;;;18.45;9.93;;;;;;;5.27;55.07;101689.63;4884336;29;20438;-81
2023/01/30 08:54:02;;;;;;;13.23;9.30;;;;;;;5.52;55.75;101709.47;4857020;29;20060;-80
2023/01/30 08:56:28;;;;;;;12.90;10.07;;;;;;;5.17;56.57;101646.25;4896421;29;20254;-79
2023/01/30 08:58:55;;;;;;;23.70;10.38;;;;;;;4.86;55.55;101581.94;4908205;29;20520;-80
2023/01/30 09:01:28;;;;;;;17.60;11.27;;;;;;;5.65;55.96;101680.69;4892740;29;20052;-80
2023/01/30 09:03:55;;;;;;;18.40;10.88;;;;;;;5.92;55.67;101703.03;4892744;29;20267;-80
2023/01/30 09:06:22;;;;;;;15.32;9.45;;;;;;;5.98;55.36;101692.16;4890559;29;20717;-80
2023/01/30 09:08:52;;;;;;;15.38;9.55;;;;;;;6.11;54.76;101700.28;4898268;29;20134;-80
2023/01/30 09:11:25;;;;;;;17.20;10.13;;;;;;;5.67;54.05;101616.47;4888232;29;20463;-80
2023/01/30 09:14:01;;;;;;;14.63;9.73;;;;;;;6.12;53.34;101673.00;4878096;29;20284;-80
2023/01/30 09:16:28;;;;;;;14.95;10.38;;;;;;;6.24;53.58;101683.81;4895950;29;20357;-79
2023/01/30 09:18:58;;;;;;;15.27;9.98;;;;;;;5.99;53.74;101621.84;4902526;29;20449;-80
2023/01/30 09:21:29;;;;;;;18.50;9.55;;;;;;;6.28;53.26;101653.72;4891560;29;20354;-79
2023/01/30 09:23:56;;;;;;;15.85;9.55;;;;;;;6.32;52.59;101652.63;4911586;28;20078;-82
2023/01/30 09:26:31;;;;;;;14.43;9.05;;;;;;;6.13;52.21;101611.41;4883072;28;20051;-83
2023/01/30 09:28:58;;;;;;;16.02;10.07;;;;;;;5.98;53.04;101580.63;4912720;28;20489;-82
2023/01/30 09:31:30;;;;;;;10.93;7.97;;;;;;;6.38;53.79;101637.31;4935711;28;20332;-84
2023/01/30 09:34:07;;;;;;;13.80;10.60;;;;;;;6.37;52.71;101618.94;4916070;28;20242;-80
2023/01/30 09:36:35;;;;;;;10.38;7.15;;;;;;;6.64;52.57;101637.66;4921898;28;20470;-81
2023/01/30 09:39:05;;;;;;;10.82;6.88;;;;;;;6.41;52.34;101579.13;4933791;28;20401;-81
2023/01/30 09:41:50;;;;;;;8.77;6.55;;;;;;;6.74;50.75;101609.78;4930029;28;20057;-80
2023/01/30 09:44:54;;;;;;;15.05;7.20;;;;;;;6.89;51.91;101616.00;4923275;28;20078;-80
2023/01/30 09:47:27;;;;;;;9.63;6.90;;;;;;;6.63;51.20;101547.09;4907667;29;20047;-81
2023/01/30 09:50:10;;;;;;;13.63;8.18;;;;;;;7.14;50.32;101615.44;4887267;29;20244;-80
2023/01/30 09:53:03;;;;;;;9.85;6.75;;;;;;;7.13;50.60;101591.75;4897523;29;20546;-80
2023/01/30 09:55:36;;;;;;;10.52;7.05;;;;;;;6.90;50.55;101527.97;4896872;29;20471;-81
2023/01/30 09:58:03;;;;;;;12.13;7.32;;;;;;;7.31;50.27;101584.56;4925494;28;20051;-80
2023/01/30 10:00:34;;;;;;;12.23;7.50;;;;;;;7.44;50.80;101599.56;4920882;29;20051;-81
2023/01/30 10:03:10;;;;;;;11.52;7.95;;;;;;;7.59;50.41;101599.59;4905052;29;20075;-80
2023/01/30 10:05:59;;;;;;;12.48;8.82;;;;;;;7.71;49.43;101593.56;4904534;29;20517;-81
2023/01/30 10:09:08;;;;;;;16.75;8.85;;;;;;;7.89;48.85;101581.84;4906269;29;20446;-80
2023/01/30 10:12:26;;;;;;;13.57;8.80;;;;;;;7.98;48.92;101571.63;4903519;29;20079;-79
2023/01/30 10:15:32;;;;;;;11.60;8.48;;;;;;;8.04;49.85;101579.22;4877005;29;20051;-81
2023/01/30 10:18:36;;;;;;;14.95;7.75;;;;;;;8.14;48.41;101597.03;4912185;29;20564;-80
2023/01/30 10:21:10;;;;;;;13.43;7.65;;;;;;;8.14;48.43;101590.91;4886231;29;20469;-78
2023/01/30 10:23:55;;;;;;;11.75;7.72;;;;;;;8.10;48.96;101574.34;4889192;29;20537;-78
2023/01/30 10:26:27;;;;;;;15.13;8.23;;;;;;;8.12;49.06;101582.19;4911517;29;20051;-82
2023/01/30 10:29:11;;;;;;;9.55;7.00;;;;;;;8.04;48.27;101561.53;4921051;29;20512;-80
2023/01/30 10:31:44;;;;;;;11.18;8.05;;;;;;;7.78;48.81;101504.16;4913406;29;20072;-81
2023/01/30 10:34:22;;;;;;;13.48;8.60;;;;;;;8.03;48.43;101536.00;4887719;29;20333;-82
2023/01/30 10:37:10;;;;;;;10.60;7.65;;;;;;;8.18;48.13;101554.50;4898463;29;20051;-83
2023/01/30 10:40:01;;;;;;;15.68;8.82;;;;;;;8.18;49.00;101550.09;4915842;29;20462;-79
2023/01/30 10:42:55;;;;;;;12.80;6.83;;;;;;;8.14;49.53;101545.94;4911232;29;20425;-80
2023/01/30 10:45:46;;;;;;;10.90;7.60;;;;;;;7.98;49.13;101516.13;4900835;29;20322;-81
2023/01/30 10:48:51;;;;;;;16.83;7.93;;;;;;;8.07;48.67;101536.69;4896259;29;20047;-82
2023/01/30 10:51:39;;;;;;;16.50;8.10;;;;;;;8.08;49.36;101527.78;4909830;29;20052;-80
2023/01/30 10:54:32;;;;;;;12.18;8.25;;;;;;;8.07;49.66;101516.38;4908675;29;20715;-81
2023/01/30 10:57:26;;;;;;;16.15;10.05;;;;;;;7.99;49.29;101494.88;4918780;28;20418;-80
2023/01/30 11:00:09;;;;;;;16.58;10.40;;;;;;;8.18;49.62;101522.75;4897974;29;20385;-78
2023/01/30 11:02:48;;;;;;;17.13;11.98;;;;;;;8.14;49.58;101517.69;4925535;29;20058;-79
2023/01/30 11:05:23;;;;;;;19.37;11.13;;;;;;;8.12;50.71;101508.16;4906695;29;20416;-80
2023/01/30 11:07:59;;;;;;;18.48;12.02;;;;;;;8.23;51.06;101529.47;4902578;28;20682;-80
2023/01/30 11:10:32;;;;;;;19.52;12.23;;;;;;;8.21;50.72;101530.53;4914608;29;20270;-78
2023/01/30 11:13:15;;;;;;;24.00;13.35;;;;;;;8.00;50.68;101485.13;4913483;29;20138;-77
2023/01/30 11:15:49;;;;;;;20.40;14.18;;;;;;;8.12;50.75;101482.53;4924213;29;20323;-81
2023/01/30 11:18:23;;;;;;;25.58;13.90;;;;;;;7.86;50.77;101402.28;4922425;29;20055;-81
2023/01/30 11:21:41;;;;;;;22.48;15.00;;;;;;;8.73;50.69;101509.44;4911531;29;20109;-82
2023/01/30 11:24:24;;;;;;;24.92;14.75;;;;;;;8.72;50.25;101476.00;4904472;29;20167;-79
2023/01/30 11:26:52;;;;;;;26.10;16.80;;;;;;;8.27;50.80;101388.09;4918131;29;20047;-79
2023/01/30 11:29:34;;;;;;;24.40;15.98;;;;;;;7.83;50.26;101307.28;4913704;29;20561;-76
2023/01/30 11:32:24;;;;;;;18.40;12.68;;;;;;;8.51;49.15;101445.66;4930842;28;20229;-80
2023/01/30 11:35:18;;;;;;;26.80;16.75;;;;;;;8.05;50.20;101393.97;4917172;29;20513;-78
2023/01/30 11:37:45;;;;;;;23.00;15.15;;;;;;;8.09;50.58;101394.63;4917410;29;20498;-80
2023/01/30 11:40:19;;;;;;;24.55;16.42;;;;;;;8.21;50.51;101396.47;4914220;29;20523;-78
2023/01/30 11:42:49;;;;;;;25.45;16.80;;;;;;;7.91;51.15;101347.31;4929591;29;20054;-79
2023/01/30 11:45:25;;;;;;;25.58;16.77;;;;;;;8.47;51.06;101439.75;4908220;29;20149;-79
2023/01/30 11:47:55;;;;;;;22.73;16.17;;;;;;;8.37;50.58;101400.72;4902534;29;20150;-80
2023/01/30 11:50:39;;;;;;;22.60;15.70;;;;;;;8.50;51.44;101402.50;4921350;28;20055;-81
2023/01/30 11:53:41;;;;;;;28.17;18.02;;;;;;;8.46;51.99;101422.16;4905523;28;20141;-81
2023/01/30 11:56:18;;;;;;;24.02;16.23;;;;;;;8.14;52.88;101379.31;4909162;28;20053;-78
2023/01/30 11:58:57;;;;;;;23.95;15.95;;;;;;;7.85;52.83;101331.84;4901798;29;20054;-79
2023/01/30 12:01:30;;;;;;;27.42;17.98;;;;;;;8.39;52.88;101420.84;4897495;29;20313;-80
2023/01/30 12:04:04;;;;;;;23.50;16.83;;;;;;;8.27;52.71;101401.34;4913690;29;20138;-81
2023/01/30 12:06:58;;;;;;;25.27;16.92;;;;;;;8.38;52.71;101413.88;4921637;29;20071;-78
2023/01/30 12:09:33;;;;;;;21.45;16.17;;;;;;;7.92;53.00;101337.56;4888399;29;20059;-80
2023/01/30 12:12:29;;;;;;;23.25;15.60;;;;;;;8.38;52.58;101392.69;4902350;29;20542;-80